ADDS METAR Data INFO
IDs: Format: Raw Decoded Include TAF

Data at: 1601 UTC 21 Sep 2017

METAR for:EBBE (Beauvechain(AB), --, BX)
Text:EBBE 211525Z 19005KT 9999 FEW040 BKN250 19/08 Q1018 BLU BLU
Temperature: 19.0°C ( 66°F)
Dewpoint: 8.0°C ( 46°F) [RH = 49%]
Pressure (altimeter):30.06 inches Hg (1018.0 mb)
Winds:from the S (190 degrees) at 6 MPH (5 knots; 2.6 m/s)
Visibility:6 or more sm (10+ km)
Ceiling:25000 feet AGL
Clouds: few clouds at 4000 feet AGL, broken clouds at 25000 feet AGL

TAF for:EBBE (Beauvechain(AB), --, BX) issued at 1541 UTC 21 Sep 2017
Text:TAF EBBE 211541Z 2119/2207 18005KT 9999 FEW035 SCT100 BKN250
Forecast period:1900 UTC 21 September 2017 to 0700 UTC 22 September 2017
Forecast type:FROM: standard forecast or significant change
Winds:from the S (180 degrees) at 6 MPH (5 knots; 2.6 m/s)
Visibility:6 or more sm (10+ km)
Ceiling:25000 feet AGL
Clouds: few clouds at 3500 feet AGL, scattered clouds at 10000 feet AGL, broken clouds at 25000 feet AGL